Time;durP1;ratioP1;P1;durP2;ratioP2;P2;SDS_P1;SDS_P2;PMS_P1;PMS_P2;Temp;Humidity;BMP_temperature;BMP_pressure;BME280_temperature;BME280_humidity;BME280_pressure;Samples;Min_cycle;Max_cycle;Signal;HPM_P1;HPM_P2
2022/11/24 00:01:19;;;;;;;18.48;4.60;;;9.10;90.40;;;;;;5038525;28;20491;-68
2022/11/24 00:03:50;;;;;;;16.88;4.32;;;9.10;90.40;;;;;;5035431;28;20026;-68
2022/11/24 00:06:16;;;;;;;16.70;4.10;;;9.10;90.40;;;;;;5037914;28;20119;-68
2022/11/24 00:08:44;;;;;;;18.02;4.85;;;9.10;90.70;;;;;;5047493;28;20100;-69
2022/11/24 00:11:12;;;;;;;16.02;4.15;;;9.10;90.40;;;;;;5045928;28;20060;-69
2022/11/24 00:13:38;;;;;;;10.65;3.20;;;9.10;90.40;;;;;;5033917;28;20022;-69
2022/11/24 00:16:18;;;;;;;13.80;3.83;;;9.10;90.30;;;;;;5039710;28;20029;-70
2022/11/24 00:18:46;;;;;;;15.32;3.95;;;9.10;90.30;;;;;;5035343;28;20082;-69
2022/11/24 00:21:12;;;;;;;15.75;4.50;;;9.10;90.20;;;;;;5042343;28;20102;-70
2022/11/24 00:23:38;;;;;;;14.38;4.32;;;9.20;90.30;;;;;;5035351;28;20029;-70
2022/11/24 00:26:09;;;;;;;13.40;4.10;;;9.20;90.30;;;;;;5033166;28;20026;-70
2022/11/24 00:28:36;;;;;;;15.13;3.85;;;9.20;90.30;;;;;;5036557;28;20105;-68
2022/11/24 00:31:03;;;;;;;14.82;3.35;;;9.20;90.20;;;;;;5048369;28;20446;-68
2022/11/24 00:33:28;;;;;;;16.50;3.40;;;9.10;90.20;;;;;;5046131;28;20552;-66
2022/11/24 00:35:58;;;;;;;18.58;4.30;;;9.10;90.20;;;;;;5061593;28;20029;-66
2022/11/24 00:38:24;;;;;;;16.05;4.70;;;9.10;90.20;;;;;;5046804;28;20573;-67
2022/11/24 00:40:50;;;;;;;14.52;3.75;;;9.10;90.20;;;;;;5044667;28;20492;-67
2022/11/24 00:43:17;;;;;;;17.38;4.30;;;9.10;90.20;;;;;;5049438;28;20195;-67
2022/11/24 00:45:42;;;;;;;17.35;4.68;;;9.10;90.20;;;;;;5042069;28;20498;-66
2022/11/24 00:48:08;;;;;;;15.93;3.78;;;9.10;90.20;;;;;;5043031;28;20112;-67
2022/11/24 00:50:34;;;;;;;16.80;3.50;;;9.10;90.10;;;;;;5040828;28;20021;-67
2022/11/24 00:53:00;;;;;;;10.73;2.70;;;9.10;90.10;;;;;;5049937;28;20104;-68
2022/11/24 00:55:26;;;;;;;13.80;3.65;;;9.10;90.10;;;;;;5044965;28;20040;-68
2022/11/24 00:57:52;;;;;;;11.50;3.10;;;9.10;90.10;;;;;;5050459;28;20051;-68
2022/11/24 01:00:18;;;;;;;13.55;3.28;;;9.10;90.10;;;;;;5041334;28;20029;-69
2022/11/24 01:02:44;;;;;;;12.65;3.50;;;9.10;90.00;;;;;;5043539;28;20037;-69
2022/11/24 01:05:10;;;;;;;13.75;3.88;;;9.10;90.00;;;;;;5033692;28;20045;-68
2022/11/24 01:07:35;;;;;;;14.63;3.35;;;9.10;90.00;;;;;;5036822;28;20026;-68
2022/11/24 01:10:01;;;;;;;12.80;3.20;;;9.10;90.00;;;;;;5038763;28;20047;-69
2022/11/24 01:12:27;;;;;;;17.27;3.97;;;9.10;89.90;;;;;;5037551;28;20026;-69
2022/11/24 01:14:53;;;;;;;10.75;3.00;;;9.10;89.90;;;;;;5041372;28;20033;-68
2022/11/24 01:17:18;;;;;;;14.77;3.47;;;9.20;90.00;;;;;;5038138;28;20029;-68
2022/11/24 01:19:46;;;;;;;11.30;2.95;;;9.20;89.90;;;;;;5048333;28;20700;-70
2022/11/24 01:22:12;;;;;;;12.07;3.08;;;9.20;89.80;;;;;;5035483;28;20037;-70
2022/11/24 01:24:38;;;;;;;12.30;3.90;;;9.20;89.70;;;;;;5031315;28;20040;-69
2022/11/24 01:27:03;;;;;;;13.68;5.35;;;9.20;89.60;;;;;;5046174;28;20025;-70
2022/11/24 01:29:29;;;;;;;19.45;6.82;;;9.20;89.60;;;;;;5039173;28;20037;-70
2022/11/24 01:31:55;;;;;;;16.92;6.30;;;9.20;89.50;;;;;;5046129;28;20084;-69
2022/11/24 01:34:20;;;;;;;19.20;6.72;;;9.20;89.50;;;;;;5042872;28;20125;-69
2022/11/24 01:36:46;;;;;;;20.35;6.22;;;9.20;89.40;;;;;;5034472;28;20037;-68
2022/11/24 01:39:12;;;;;;;16.80;4.75;;;9.20;89.30;;;;;;5030408;28;20060;-68
2022/11/24 01:41:38;;;;;;;16.83;3.97;;;9.20;89.30;;;;;;5045901;28;20108;-69
2022/11/24 01:44:25;;;;;;;17.15;4.28;;;9.20;89.20;;;;;;5042646;28;20108;-68
2022/11/24 01:46:57;;;;;;;10.77;3.13;;;9.20;89.10;;;;;;5030412;28;20038;-68
2022/11/24 01:49:34;;;;;;;;;;;9.30;89.10;;;;;;5032973;28;20064;-69
2022/11/24 01:52:11;;;;;;;18.45;3.97;;;9.30;88.90;;;;;;5044393;28;19917;-69
2022/11/24 01:54:43;;;;;;;11.07;3.00;;;9.30;88.90;;;;;;5034117;28;20171;-70
2022/11/24 01:57:17;;;;;;;15.82;3.05;;;9.30;88.90;;;;;;5046930;28;20043;-66
2022/11/24 01:59:48;;;;;;;11.88;2.90;;;9.30;88.70;;;;;;5042619;28;20028;-66
2022/11/24 02:02:14;;;;;;;12.03;2.90;;;9.30;88.60;;;;;;5037335;28;20412;-68
2022/11/24 02:04:41;;;;;;;14.70;3.42;;;9.20;88.60;;;;;;5034801;28;20033;-67
2022/11/24 02:07:07;;;;;;;13.60;3.17;;;9.20;88.60;;;;;;5045337;28;20476;-70
2022/11/24 02:09:43;;;;;;;11.90;3.35;;;9.20;88.60;;;;;;5036678;28;20622;-69
2022/11/24 02:12:10;;;;;;;11.98;3.40;;;9.20;88.60;;;;;;5045949;28;20037;-69
2022/11/24 02:14:38;;;;;;;12.70;3.40;;;9.20;88.60;;;;;;5041622;28;20057;-69
2022/11/24 02:17:03;;;;;;;18.83;3.90;;;9.20;88.60;;;;;;5036830;28;20056;-69
2022/11/24 02:19:38;;;;;;;15.48;3.63;;;9.20;88.50;;;;;;5037109;28;20057;-69
2022/11/24 02:22:04;;;;;;;21.02;3.75;;;9.20;88.50;;;;;;5045448;28;20025;-69
2022/11/24 02:24:39;;;;;;;12.30;3.17;;;9.20;88.40;;;;;;5040905;28;20029;-69
2022/11/24 02:27:05;;;;;;;11.15;2.97;;;9.20;88.40;;;;;;5043439;28;20511;-69
2022/11/24 02:29:30;;;;;;;10.80;3.03;;;9.30;88.40;;;;;;5040521;28;20021;-69
2022/11/24 02:32:03;;;;;;;10.02;2.83;;;9.30;88.30;;;;;;5047703;28;20021;-69
2022/11/24 02:34:28;;;;;;;;;;;9.30;88.20;;;;;;5041164;28;20029;-70
2022/11/24 02:36:54;;;;;;;12.35;2.70;;;9.30;88.10;;;;;;5043873;28;19917;-69
2022/11/24 02:39:19;;;;;;;13.80;3.58;;;9.30;88.80;;;;;;5033334;28;20041;-69
2022/11/24 02:41:51;;;;;;;17.85;4.05;;;9.30;88.20;;;;;;5042942;28;20029;-69
2022/11/24 02:44:20;;;;;;;12.43;2.80;;;9.30;88.10;;;;;;5031952;28;20022;-70
2022/11/24 02:46:46;;;;;;;18.00;3.33;;;9.20;88.00;;;;;;5032164;28;20025;-69
2022/11/24 02:49:15;;;;;;;11.30;3.38;;;9.20;88.00;;;;;;5041321;28;20032;-71
2022/11/24 02:51:41;;;;;;;12.68;3.05;;;9.20;88.00;;;;;;5042105;28;20049;-71
2022/11/24 02:54:07;;;;;;;13.38;3.05;;;9.20;88.10;;;;;;5030702;28;20503;-71
2022/11/24 02:56:33;;;;;;;8.85;2.72;;;9.10;88.00;;;;;;5044316;28;20051;-69
2022/11/24 02:58:58;;;;;;;9.27;2.40;;;9.10;88.00;;;;;;5036991;28;20451;-70
2022/11/24 03:01:24;;;;;;;11.95;3.10;;;9.10;88.00;;;;;;5030125;28;20036;-70
2022/11/24 03:03:49;;;;;;;12.55;3.00;;;9.10;88.00;;;;;;5042037;28;20113;-67
2022/11/24 03:06:15;;;;;;;14.75;3.00;;;9.10;88.00;;;;;;5047271;28;20414;-69
2022/11/24 03:08:40;;;;;;;12.63;3.00;;;9.00;88.00;;;;;;5036442;28;20053;-70
2022/11/24 03:11:06;;;;;;;10.98;3.05;;;9.00;88.00;;;;;;5045615;28;20083;-69
2022/11/24 03:13:32;;;;;;;10.00;3.05;;;9.00;88.10;;;;;;5035724;28;20138;-70
2022/11/24 03:15:57;;;;;;;18.80;3.85;;;9.00;88.10;;;;;;5033050;28;20028;-70
2022/11/24 03:18:23;;;;;;;9.90;3.40;;;9.00;88.10;;;;;;5047912;28;20120;-70
2022/11/24 03:20:48;;;;;;;15.05;3.35;;;9.00;88.10;;;;;;5031310;28;20036;-68
2022/11/24 03:23:14;;;;;;;12.68;2.97;;;9.00;88.10;;;;;;5038781;28;20087;-69
2022/11/24 03:25:39;;;;;;;13.02;3.03;;;9.00;88.20;;;;;;5031169;28;20443;-69
2022/11/24 03:28:05;;;;;;;15.27;2.80;;;9.00;88.20;;;;;;5043227;28;20036;-70
2022/11/24 03:30:31;;;;;;;12.43;2.75;;;9.00;88.20;;;;;;5030670;28;20100;-69
2022/11/24 03:32:57;;;;;;;10.02;2.70;;;9.00;88.20;;;;;;5035889;28;20045;-70
2022/11/24 03:35:22;;;;;;;10.63;2.60;;;9.00;88.20;;;;;;5034341;28;20522;-70
2022/11/24 03:37:48;;;;;;;11.85;3.05;;;9.00;88.20;;;;;;5031560;28;20068;-70
2022/11/24 03:40:14;;;;;;;12.95;3.03;;;9.00;88.10;;;;;;5042963;28;20537;-71
2022/11/24 03:42:40;;;;;;;18.05;3.45;;;9.00;88.10;;;;;;5033554;28;20029;-70
2022/11/24 03:45:06;;;;;;;14.18;3.15;;;9.00;88.10;;;;;;5044402;28;20166;-70
2022/11/24 03:47:32;;;;;;;13.60;3.33;;;9.00;88.10;;;;;;5038543;28;20030;-71
2022/11/24 03:49:57;;;;;;;15.23;3.58;;;9.10;88.10;;;;;;5030395;28;20546;-70
2022/11/24 03:52:25;;;;;;;16.30;3.35;;;9.10;88.00;;;;;;5045206;28;20052;-69
2022/11/24 03:54:51;;;;;;;16.38;3.80;;;9.10;88.00;;;;;;5042510;28;20024;-70
2022/11/24 03:57:17;;;;;;;13.77;3.10;;;9.20;88.00;;;;;;5031811;28;20022;-70
2022/11/24 03:59:42;;;;;;;12.65;3.28;;;9.20;87.90;;;;;;5040799;28;20376;-70
2022/11/24 04:02:08;;;;;;;11.43;3.17;;;9.20;87.80;;;;;;5050999;28;20056;-71
2022/11/24 04:04:33;;;;;;;16.13;3.67;;;9.20;87.80;;;;;;5051916;28;20470;-71
2022/11/24 04:06:59;;;;;;;16.58;4.40;;;9.20;87.70;;;;;;5046627;28;20037;-71
2022/11/24 04:09:24;;;;;;;15.20;3.67;;;9.20;87.70;;;;;;5032360;28;20088;-71
2022/11/24 04:14:34;;;;;;;12.38;3.60;;;9.10;87.70;;;;;;5032722;28;20103;-70
2022/11/24 04:17:01;;;;;;;12.05;3.47;;;9.10;87.80;;;;;;5033324;28;20053;-70
2022/11/24 04:19:27;;;;;;;18.58;4.15;;;9.10;87.80;;;;;;5036534;28;20090;-71
2022/11/24 04:21:52;;;;;;;16.85;3.67;;;9.10;87.70;;;;;;5039383;28;20630;-71
2022/11/24 04:24:18;;;;;;;13.90;4.15;;;9.10;87.80;;;;;;5031958;28;20026;-69
2022/11/24 04:26:43;;;;;;;11.77;3.42;;;9.10;87.80;;;;;;5039205;28;20025;-71
2022/11/24 04:29:09;;;;;;;17.45;3.42;;;9.10;87.80;;;;;;5040327;28;20038;-70
2022/11/24 04:31:35;;;;;;;12.82;3.28;;;9.10;87.70;;;;;;5040104;28;20032;-69
2022/11/24 04:34:00;;;;;;;17.83;3.90;;;9.20;87.70;;;;;;5034716;28;20059;-70
2022/11/24 04:36:26;;;;;;;12.60;2.92;;;9.10;87.60;;;;;;5037480;28;20045;-67
2022/11/24 04:38:52;;;;;;;19.27;3.95;;;9.10;87.70;;;;;;5047066;28;20033;-70
2022/11/24 04:41:18;;;;;;;15.20;3.90;;;9.10;87.70;;;;;;5037258;28;20029;-70
2022/11/24 04:43:44;;;;;;;14.82;3.53;;;9.10;87.80;;;;;;5048846;28;20028;-70
2022/11/24 04:46:10;;;;;;;18.27;4.28;;;9.10;87.70;;;;;;5050059;28;20399;-67
2022/11/24 04:48:36;;;;;;;14.98;3.80;;;9.10;87.80;;;;;;5039130;28;20029;-69
2022/11/24 04:51:05;;;;;;;19.95;3.58;;;9.10;87.80;;;;;;5043008;28;20028;-68
2022/11/24 04:53:30;;;;;;;13.10;3.38;;;9.10;87.80;;;;;;5042130;28;20026;-68
2022/11/24 04:55:56;;;;;;;15.10;3.72;;;9.10;87.80;;;;;;5046119;28;20032;-69
2022/11/24 04:58:21;;;;;;;14.02;3.22;;;9.10;87.80;;;;;;5046659;28;20025;-68
2022/11/24 05:00:47;;;;;;;12.23;3.20;;;9.20;87.90;;;;;;5037437;28;20487;-69
2022/11/24 05:03:13;;;;;;;11.68;2.88;;;9.20;87.80;;;;;;5046513;28;20037;-69
2022/11/24 05:05:38;;;;;;;13.73;3.15;;;9.20;87.80;;;;;;5033004;28;20022;-68
2022/11/24 05:08:04;;;;;;;13.63;3.53;;;9.20;87.70;;;;;;5041821;28;20039;-68
2022/11/24 05:10:35;;;;;;;10.40;3.13;;;9.30;87.70;;;;;;5049063;28;20041;-69
2022/11/24 05:13:04;;;;;;;11.95;3.50;;;9.30;87.60;;;;;;5042563;28;20499;-69
2022/11/24 05:15:30;;;;;;;16.63;3.75;;;9.30;87.60;;;;;;5032422;28;20484;-69
2022/11/24 05:17:56;;;;;;;14.68;3.58;;;9.30;87.40;;;;;;5034981;28;20034;-69
2022/11/24 05:20:22;;;;;;;12.75;3.00;;;9.30;87.40;;;;;;5042188;28;20549;-70
2022/11/24 05:22:48;;;;;;;8.77;2.42;;;9.30;87.50;;;;;;5030252;28;20418;-69
2022/11/24 05:25:14;;;;;;;9.82;2.65;;;9.30;87.40;;;;;;5051565;28;20025;-70
2022/11/24 05:27:39;;;;;;;10.27;2.70;;;9.30;87.30;;;;;;5037511;28;20056;-69
2022/11/24 05:30:06;;;;;;;7.93;2.38;;;9.40;87.20;;;;;;5038843;28;20031;-70
2022/11/24 05:32:31;;;;;;;7.05;2.22;;;9.40;87.10;;;;;;5032503;28;20018;-72
2022/11/24 05:34:59;;;;;;;10.63;2.50;;;9.40;87.10;;;;;;5036471;28;20032;-70
2022/11/24 05:37:27;;;;;;;6.82;2.20;;;9.40;86.90;;;;;;5042268;28;20034;-71
2022/11/24 05:39:53;;;;;;;8.15;2.30;;;9.40;86.80;;;;;;5046974;28;20170;-70
2022/11/24 05:45:03;;;;;;;9.77;2.58;;;9.40;86.80;;;;;;5030749;28;20068;-71
2022/11/24 05:47:29;;;;;;;10.27;2.20;;;9.40;86.70;;;;;;5033481;28;20033;-71
2022/11/24 05:49:55;;;;;;;7.35;1.92;;;9.40;86.60;;;;;;5039506;28;20021;-74
2022/11/24 05:52:22;;;;;;;8.95;2.47;;;9.40;86.60;;;;;;5039181;28;20028;-69
2022/11/24 05:54:49;;;;;;;6.00;2.45;;;9.40;86.60;;;;;;5037943;28;20028;-69
2022/11/24 05:57:16;;;;;;;6.10;1.92;;;9.40;86.60;;;;;;5036008;28;20472;-69
2022/11/24 05:59:41;;;;;;;8.40;2.47;;;9.40;86.70;;;;;;5045563;28;20103;-69
2022/11/24 06:02:08;;;;;;;6.60;2.22;;;9.30;86.60;;;;;;5045209;28;20116;-69
2022/11/24 06:04:34;;;;;;;9.02;2.22;;;9.40;86.60;;;;;;5042600;28;20025;-68
2022/11/24 06:07:00;;;;;;;5.28;1.75;;;9.40;86.60;;;;;;5042768;28;20025;-69
2022/11/24 06:09:26;;;;;;;5.45;1.83;;;9.30;86.60;;;;;;5038807;28;20026;-69
2022/11/24 06:11:51;;;;;;;4.50;1.90;;;9.30;86.60;;;;;;5030162;28;20104;-68
2022/11/24 06:14:17;;;;;;;5.85;2.22;;;9.30;86.70;;;;;;5030745;28;20025;-69
2022/11/24 06:16:42;;;;;;;6.80;2.17;;;9.30;86.70;;;;;;5047751;28;20022;-70
2022/11/24 06:19:09;;;;;;;5.88;2.03;;;9.30;87.20;;;;;;5030043;28;20044;-69
2022/11/24 06:21:35;;;;;;;6.55;1.90;;;9.40;86.60;;;;;;5067162;28;20367;-69
2022/11/24 06:24:01;;;;;;;5.78;1.80;;;9.30;86.60;;;;;;5069854;28;20025;-69
2022/11/24 06:26:27;;;;;;;5.60;1.80;;;9.30;86.70;;;;;;5050065;28;20025;-69
2022/11/24 06:28:53;;;;;;;4.30;1.67;;;9.30;86.60;;;;;;5032451;28;20025;-70
2022/11/24 06:31:18;;;;;;;6.53;1.80;;;9.30;86.70;;;;;;5031046;28;20083;-69
2022/11/24 06:33:44;;;;;;;5.72;1.65;;;9.30;86.80;;;;;;5060095;28;20695;-69
2022/11/24 06:36:12;;;;;;;5.53;1.70;;;9.30;86.80;;;;;;5055603;28;20033;-70
2022/11/24 06:38:38;;;;;;;3.88;1.80;;;9.40;86.80;;;;;;5049279;28;20036;-69
2022/11/24 06:41:06;;;;;;;3.78;1.65;;;9.40;86.80;;;;;;5048591;28;20407;-68
2022/11/24 06:43:33;;;;;;;7.00;2.28;;;9.40;86.80;;;;;;5030529;28;20017;-69
2022/11/24 06:46:00;;;;;;;3.47;1.80;;;9.40;86.80;;;;;;5030981;28;20079;-68
2022/11/24 06:48:26;;;;;;;4.15;1.75;;;9.40;86.90;;;;;;5048250;28;20044;-70
2022/11/24 06:50:52;;;;;;;4.78;1.70;;;9.30;87.60;;;;;;5049449;28;20049;-69
2022/11/24 06:53:18;;;;;;;4.85;1.75;;;9.40;87.80;;;;;;5048825;28;20029;-69
2022/11/24 06:55:45;;;;;;;3.05;1.73;;;9.40;87.20;;;;;;5039771;28;20075;-70
2022/11/24 06:58:11;;;;;;;4.10;1.73;;;9.40;87.30;;;;;;5041110;28;20077;-68
2022/11/24 07:00:37;;;;;;;3.28;1.65;;;9.40;87.40;;;;;;5048364;28;20056;-69
2022/11/24 07:03:03;;;;;;;4.82;1.80;;;9.40;87.50;;;;;;5040187;28;20035;-70
2022/11/24 07:05:28;;;;;;;4.57;2.05;;;9.50;87.60;;;;;;5038983;28;20495;-71
2022/11/24 07:07:54;;;;;;;4.13;1.85;;;9.50;87.60;;;;;;5034904;28;20028;-70
2022/11/24 07:10:20;;;;;;;5.97;2.08;;;9.50;87.50;;;;;;5041011;28;20037;-69
2022/11/24 07:12:45;;;;;;;5.47;2.60;;;9.40;87.50;;;;;;5036946;28;20029;-68
2022/11/24 07:15:11;;;;;;;6.57;2.55;;;9.40;87.60;;;;;;5038914;28;20447;-69
2022/11/24 07:17:38;;;;;;;3.63;2.22;;;9.40;87.70;;;;;;5048529;28;20037;-70
2022/11/24 07:20:06;;;;;;;5.47;2.67;;;9.40;87.80;;;;;;5039730;28;20093;-69
2022/11/24 07:22:31;;;;;;;5.55;3.10;;;9.40;87.80;;;;;;5048616;28;20025;-69
2022/11/24 07:24:57;;;;;;;6.38;3.30;;;9.40;87.90;;;;;;5036702;28;20082;-70
2022/11/24 07:27:22;;;;;;;6.60;3.90;;;9.40;87.90;;;;;;5039494;28;20036;-68
2022/11/24 07:29:48;;;;;;;6.65;3.60;;;9.40;88.10;;;;;;5037753;28;20017;-69
2022/11/24 07:32:13;;;;;;;5.40;3.30;;;9.40;88.10;;;;;;5048570;28;20376;-68
2022/11/24 07:34:39;;;;;;;6.40;4.07;;;9.40;88.10;;;;;;5051089;28;20371;-69
2022/11/24 07:37:05;;;;;;;5.70;3.35;;;9.40;88.10;;;;;;5052960;28;20599;-68
2022/11/24 07:39:30;;;;;;;5.13;3.60;;;9.50;88.20;;;;;;5040375;28;20040;-68
2022/11/24 07:41:58;;;;;;;6.80;3.70;;;9.50;88.70;;;;;;5040026;28;20459;-68
2022/11/24 07:44:24;;;;;;;7.47;4.20;;;9.50;88.00;;;;;;5050926;28;20490;-70
2022/11/24 07:46:50;;;;;;;6.20;4.00;;;9.40;88.00;;;;;;5049066;28;20031;-70
2022/11/24 07:49:16;;;;;;;4.68;3.03;;;9.40;88.10;;;;;;5050329;28;20527;-70
2022/11/24 07:51:41;;;;;;;6.78;3.38;;;9.50;88.10;;;;;;5048579;28;20048;-68
2022/11/24 07:54:07;;;;;;;6.88;3.60;;;9.50;88.10;;;;;;5050882;28;20541;-68
2022/11/24 07:56:32;;;;;;;6.00;3.60;;;9.50;88.10;;;;;;5045512;28;20103;-69
2022/11/24 07:58:58;;;;;;;10.95;5.15;;;9.50;88.10;;;;;;5042979;28;20028;-69
2022/11/24 08:01:23;;;;;;;7.07;4.55;;;9.50;88.00;;;;;;5035866;28;20031;-68
2022/11/24 08:03:49;;;;;;;7.78;5.03;;;9.40;88.10;;;;;;5039151;28;20123;-69
2022/11/24 08:06:16;;;;;;;8.80;4.35;;;9.40;88.10;;;;;;5043046;28;20403;-70
2022/11/24 08:08:41;;;;;;;8.40;4.97;;;9.50;88.20;;;;;;5040710;28;20041;-69
2022/11/24 08:11:09;;;;;;;8.18;5.22;;;9.50;88.30;;;;;;5044826;28;20087;-69
2022/11/24 08:13:35;;;;;;;9.48;5.13;;;9.40;88.20;;;;;;5045225;28;20017;-70
2022/11/24 08:16:10;;;;;;;6.80;4.90;;;9.40;88.30;;;;;;5046486;28;20475;-69
2022/11/24 08:18:37;;;;;;;6.82;5.00;;;9.40;88.40;;;;;;5037059;28;20029;-68
2022/11/24 08:21:04;;;;;;;7.35;5.15;;;9.40;88.40;;;;;;5050881;28;20028;-69
2022/11/24 08:23:30;;;;;;;7.57;4.80;;;9.50;88.50;;;;;;5043550;28;20063;-69
2022/11/24 08:25:59;;;;;;;7.15;5.32;;;9.50;88.40;;;;;;5039103;28;20026;-70
2022/11/24 08:28:24;;;;;;;8.10;5.10;;;9.40;88.40;;;;;;5046784;28;20108;-69
2022/11/24 08:30:50;;;;;;;9.35;5.28;;;9.40;88.50;;;;;;5044417;28;20108;-69
2022/11/24 08:33:16;;;;;;;9.13;5.47;;;9.50;88.60;;;;;;5051560;28;20024;-70
2022/11/24 08:35:41;;;;;;;7.82;4.85;;;9.50;88.70;;;;;;5044406;28;20407;-69
2022/11/24 08:38:07;;;;;;;10.00;4.40;;;9.50;88.70;;;;;;5045627;28;20036;-70
2022/11/24 08:40:32;;;;;;;8.00;4.35;;;9.60;88.60;;;;;;5049578;28;20029;-71
2022/11/24 08:42:59;;;;;;;8.25;4.85;;;9.60;88.60;;;;;;5038854;28;20107;-70
2022/11/24 08:45:25;;;;;;;9.77;4.78;;;9.60;88.60;;;;;;5044472;28;20135;-70
2022/11/24 08:47:55;;;;;;;7.50;3.63;;;9.60;88.70;;;;;;5039855;28;20439;-68
2022/11/24 08:50:23;;;;;;;6.20;3.83;;;9.60;88.80;;;;;;5042709;28;20461;-69
2022/11/24 08:52:53;;;;;;;9.75;4.32;;;9.60;88.80;;;;;;5040698;28;20479;-68
2022/11/24 08:55:19;;;;;;;8.77;4.15;;;9.60;88.70;;;;;;5043523;28;20116;-69
2022/11/24 08:57:45;;;;;;;9.25;3.72;;;9.70;88.80;;;;;;5047483;28;20120;-69
2022/11/24 09:00:12;;;;;;;5.40;3.67;;;9.70;88.80;;;;;;5046521;28;20503;-69
2022/11/24 09:02:38;;;;;;;5.88;2.85;;;9.70;88.80;;;;;;5047035;28;20055;-69
2022/11/24 09:05:03;;;;;;;7.18;3.67;;;9.70;88.70;;;;;;5047558;28;20108;-70
2022/11/24 09:07:29;;;;;;;8.55;3.83;;;9.70;88.70;;;;;;5049914;28;20021;-69
2022/11/24 09:09:55;;;;;;;9.35;3.50;;;9.70;88.60;;;;;;5044047;28;20025;-69
2022/11/24 09:12:21;;;;;;;7.35;3.97;;;9.70;88.70;;;;;;5048121;28;20531;-69
2022/11/24 09:14:46;;;;;;;8.05;3.80;;;9.70;88.60;;;;;;5048402;28;20025;-69
2022/11/24 09:17:12;;;;;;;7.80;3.97;;;9.60;88.70;;;;;;5048636;28;20104;-70
2022/11/24 09:19:37;;;;;;;9.45;4.00;;;9.60;88.80;;;;;;5051160;28;20104;-69
2022/11/24 09:22:03;;;;;;;8.30;3.95;;;9.60;88.90;;;;;;5046872;28;20041;-69
2022/11/24 09:24:29;;;;;;;6.18;3.20;;;9.60;88.90;;;;;;5049741;28;20277;-70
2022/11/24 09:26:55;;;;;;;10.80;4.78;;;9.60;88.90;;;;;;5042558;28;20029;-68
2022/11/24 09:29:20;;;;;;;10.82;5.35;;;9.70;89.00;;;;;;5042481;28;20025;-70
2022/11/24 09:31:46;;;;;;;6.40;3.35;;;9.70;89.10;;;;;;5036969;28;20051;-68
2022/11/24 09:34:14;;;;;;;8.60;3.40;;;9.70;89.20;;;;;;5039289;28;20116;-70
2022/11/24 09:36:40;;;;;;;6.40;3.00;;;9.70;89.00;;;;;;5037463;28;20025;-68
2022/11/24 09:39:06;;;;;;;6.13;2.70;;;9.70;88.90;;;;;;5045028;28;20091;-68
2022/11/24 09:42:06;;;;;;;8.63;3.47;;;9.70;88.90;;;;;;5045934;28;20030;-69
2022/11/24 09:45:18;;;;;;;8.27;3.35;;;9.70;89.10;;;;;;5047998;28;20402;-69
2022/11/24 09:48:00;;;;;;;7.03;2.90;;;9.70;89.20;;;;;;5034978;28;20044;-68
2022/11/24 09:50:32;;;;;;;10.63;2.90;;;9.80;89.30;;;;;;5045666;28;20032;-70
2022/11/24 09:53:17;;;;;;;7.47;2.65;;;9.80;89.30;;;;;;5044545;28;20013;-68
2022/11/24 09:55:48;;;;;;;12.40;3.95;;;9.90;89.30;;;;;;5044025;28;20028;-68
2022/11/24 09:58:27;;;;;;;6.75;2.83;;;9.90;89.20;;;;;;5045025;28;20033;-70
2022/11/24 10:00:55;;;;;;;7.13;3.33;;;10.00;89.20;;;;;;5043175;28;20080;-68
2022/11/24 10:03:36;;;;;;;9.18;3.20;;;10.00;89.10;;;;;;5040826;28;20068;-69
2022/11/24 10:06:14;;;;;;;7.05;2.90;;;10.00;89.00;;;;;;5041099;28;20036;-71
2022/11/24 10:09:29;;;;;;;6.60;2.42;;;10.00;88.90;;;;;;5038598;28;20025;-70
2022/11/24 10:12:27;;;;;;;8.57;2.85;;;10.00;89.00;;;;;;5057803;28;20414;-68
2022/11/24 10:15:14;;;;;;;4.97;2.50;;;10.00;88.90;;;;;;5039890;28;20109;-68
2022/11/24 10:18:16;;;;;;;9.43;3.15;;;10.10;89.00;;;;;;5040296;28;20029;-69
2022/11/24 10:21:01;;;;;;;9.93;2.70;;;10.10;88.90;;;;;;5040806;28;20029;-69
2022/11/24 10:23:54;;;;;;;7.85;2.75;;;10.10;88.70;;;;;;5050560;28;20017;-69
2022/11/24 10:26:28;;;;;;;5.65;2.10;;;10.20;88.70;;;;;;5052619;28;20107;-69
2022/11/24 10:28:55;;;;;;;6.82;2.83;;;10.20;88.60;;;;;;5049651;28;20021;-70
2022/11/24 10:31:29;;;;;;;9.13;3.17;;;10.30;88.60;;;;;;5051876;28;20150;-70
2022/11/24 10:33:57;;;;;;;8.60;2.63;;;10.30;88.50;;;;;;5041128;28;20021;-69
2022/11/24 10:36:39;;;;;;;7.75;2.40;;;10.40;88.30;;;;;;5071663;28;20582;-68
2022/11/24 10:39:27;;;;;;;7.57;2.45;;;10.40;88.20;;;;;;5043687;28;20041;-68
2022/11/24 10:42:14;;;;;;;7.78;2.83;;;10.50;88.10;;;;;;5036866;28;20064;-69
2022/11/24 10:44:41;;;;;;;12.40;3.50;;;10.50;87.80;;;;;;5041052;28;20079;-68
2022/11/24 10:47:21;;;;;;;8.00;2.53;;;10.50;87.50;;;;;;5052291;28;20064;-68
2022/11/24 10:49:58;;;;;;;8.60;2.50;;;10.50;87.30;;;;;;5045025;28;20041;-68
2022/11/24 10:52:25;;;;;;;7.80;2.38;;;10.50;87.20;;;;;;5050327;28;20026;-68
2022/11/24 10:55:00;;;;;;;6.35;2.33;;;10.60;87.10;;;;;;5048068;28;20024;-69
2022/11/24 10:57:28;;;;;;;7.63;2.20;;;10.70;87.10;;;;;;5052278;28;20080;-68
2022/11/24 10:59:54;;;;;;;9.48;2.88;;;10.70;86.80;;;;;;5039081;28;20052;-68
2022/11/24 11:02:36;;;;;;;8.85;2.40;;;10.80;86.70;;;;;;5054393;28;20071;-68
2022/11/24 11:05:40;;;;;;;9.05;2.55;;;10.80;86.40;;;;;;5046052;28;20021;-69
2022/11/24 11:08:44;;;;;;;10.07;2.72;;;10.90;86.10;;;;;;5042474;28;20022;-69
2022/11/24 11:11:21;;;;;;;12.60;3.20;;;10.90;85.80;;;;;;5049481;28;20052;-69
2022/11/24 11:13:51;;;;;;;11.07;2.90;;;11.00;85.60;;;;;;5046308;28;20037;-67
2022/11/24 11:16:50;;;;;;;12.35;3.17;;;11.00;85.30;;;;;;5057937;28;20050;-69
2022/11/24 11:19:41;;;;;;;9.38;2.60;;;11.00;85.00;;;;;;5050694;28;20018;-71
2022/11/24 11:22:09;;;;;;;11.05;2.80;;;11.10;85.00;;;;;;5036186;28;20591;-69
2022/11/24 11:24:40;;;;;;;9.80;2.90;;;11.10;84.70;;;;;;5035008;28;20033;-69
2022/11/24 11:27:20;;;;;;;9.95;2.38;;;11.10;84.40;;;;;;5031419;28;20079;-68
2022/11/24 11:29:47;;;;;;;8.88;2.60;;;11.10;84.30;;;;;;5029379;28;20559;-69
2022/11/24 11:32:25;;;;;;;8.68;2.55;;;11.10;84.10;;;;;;5032540;28;20022;-70
2022/11/24 11:34:55;;;;;;;7.03;2.25;;;11.20;84.10;;;;;;5023760;28;20188;-71
2022/11/24 11:37:24;;;;;;;8.63;2.25;;;11.30;83.90;;;;;;5021213;28;20029;-68
2022/11/24 11:39:52;;;;;;;8.32;2.60;;;11.30;83.60;;;;;;5029839;28;20014;-68
2022/11/24 11:42:32;;;;;;;10.45;3.13;;;11.40;83.70;;;;;;5044003;28;20176;-69
2022/11/24 11:44:58;;;;;;;8.48;2.90;;;11.50;83.40;;;;;;5024479;28;20022;-69
2022/11/24 11:47:31;;;;;;;11.20;3.30;;;11.50;83.10;;;;;;5031543;28;20084;-68
2022/11/24 11:49:57;;;;;;;15.07;3.55;;;11.50;82.50;;;;;;5027893;28;20057;-71
2022/11/24 11:53:01;;;;;;;11.52;2.67;;;11.60;82.60;;;;;;5028224;28;20064;-68
2022/11/24 11:55:39;;;;;;;10.77;2.83;;;11.60;82.60;;;;;;5024135;28;20400;-69
2022/11/24 11:58:52;;;;;;;9.68;2.60;;;11.80;83.30;;;;;;5032711;28;20078;-68
2022/11/24 12:01:48;;;;;;;13.38;2.63;;;12.90;81.80;;;;;;5028237;28;20043;-71
2022/11/24 12:04:34;;;;;;;10.98;2.83;;;14.10;76.60;;;;;;5026413;28;20116;-70
2022/11/24 12:07:02;;;;;;;8.77;2.40;;;13.60;76.30;;;;;;5027280;28;20037;-70
2022/11/24 12:09:46;;;;;;;8.70;2.75;;;13.20;77.20;;;;;;5032152;28;20114;-70
2022/11/24 12:12:12;;;;;;;11.70;3.00;;;13.00;78.30;;;;;;5022137;28;20104;-69
2022/11/24 12:15:01;;;;;;;11.40;3.03;;;12.90;79.30;;;;;;5020790;28;20129;-70
2022/11/24 12:17:33;;;;;;;11.35;3.25;;;13.90;78.70;;;;;;5028355;28;20068;-69
2022/11/24 12:20:36;;;;;;;9.25;2.83;;;15.20;75.10;;;;;;5028909;28;20455;-68
2022/11/24 12:23:10;;;;;;;;;;;16.20;72.30;;;;;;5030783;28;20056;-69
2022/11/24 12:25:54;;;;;;;12.65;3.13;;;16.40;69.50;;;;;;5024725;28;20030;-70
2022/11/24 12:28:25;;;;;;;13.65;3.60;;;16.40;68.60;;;;;;5033546;28;20032;-69
2022/11/24 12:31:00;;;;;;;13.13;3.30;;;16.60;67.50;;;;;;5027845;28;20500;-69
2022/11/24 12:33:56;;;;;;;11.38;2.75;;;16.40;67.30;;;;;;5027959;28;20399;-69
2022/11/24 12:36:56;;;;;;;10.10;2.80;;;16.20;67.70;;;;;;5030091;28;20029;-69
2022/11/24 12:39:29;;;;;;;12.45;3.00;;;16.20;67.50;;;;;;5030890;28;20078;-69
2022/11/24 12:42:04;;;;;;;12.90;3.05;;;16.60;67.00;;;;;;5026867;28;20021;-70
2022/11/24 12:44:54;;;;;;;10.93;2.70;;;16.90;66.60;;;;;;5022907;28;20029;-70
2022/11/24 12:47:59;;;;;;;13.00;2.75;;;17.20;65.80;;;;;;5021536;28;20037;-71
2022/11/24 12:50:28;;;;;;;11.50;3.53;;;17.00;65.30;;;;;;5029167;28;20041;-69
2022/11/24 12:53:03;;;;;;;12.32;3.15;;;16.80;64.70;;;;;;5024140;28;20468;-69
2022/11/24 12:55:32;;;;;;;14.63;3.42;;;16.90;64.70;;;;;;5014937;28;20021;-70
2022/11/24 12:58:13;;;;;;;9.77;2.72;;;16.90;64.20;;;;;;5025492;28;20568;-69
2022/11/24 13:01:04;;;;;;;9.88;2.50;;;17.00;64.50;;;;;;5029025;28;20036;-70
2022/11/24 13:03:55;;;;;;;10.50;2.70;;;17.00;63.80;;;;;;5022137;28;20484;-70
2022/11/24 13:06:32;;;;;;;11.10;3.00;;;16.90;64.00;;;;;;5043843;28;20033;-70
2022/11/24 13:08:58;;;;;;;11.73;2.90;;;16.90;63.60;;;;;;5034000;28;20029;-68
2022/11/24 13:11:31;;;;;;;11.82;3.22;;;16.80;63.70;;;;;;5025099;28;20384;-71